Oregon, Wisconsin
Current Conditions -  °F | °C
As of 12:53 PM on Saturday 25 Oct 2014 (Local Time) from KMSN Reporting Station
Few Clouds Few Clouds  
Wind Chill: 67°   Ceiling: Unl
Heat Index: 67°   Visibility: 10mi
Dew Point: 31°   Wind: 15mph
Humidity: 26%   Direction: 290°WNW
Pressure: 29.94"   Gusts: 23mph
Location:  42.93°N, 89.38°W
Report Text: KMSN 251753Z 29013G20KT 10SM FEW080 FEW250 19/M01 A2994 RMK AO2 SLP139 T01941006 10194 20122 58007
Loading
Personal Weather Stations






























Interactive Weather Map
Tropical Storm Tracking
New forecast layout! Learn more

10-Day Weather Forecast

Advertisements
Track Severe Weather on mobile